Time;durP1;ratioP1;P1;durP2;ratioP2;P2;SDS_P1;SDS_P2;PMS_P1;PMS_P2;Temp;Humidity;BMP_temperature;BMP_pressure;BME280_temperature;BME280_humidity;BME280_pressure;Samples;Min_cycle;Max_cycle;Signal;HPM_P1;HPM_P2
2023/06/19 00:00:03;;;;;;;8.80;8.05;;;17.80;99.90;;;;;;5202070;28;20029;-70
2023/06/19 00:02:37;;;;;;;11.40;10.20;;;17.70;99.90;;;;;;5205091;28;20098;-69
2023/06/19 00:05:09;;;;;;;11.40;10.50;;;17.80;99.90;;;;;;5204845;28;20480;-70
2023/06/19 00:07:40;;;;;;;11.20;10.20;;;17.90;99.90;;;;;;5205066;28;20029;-70
2023/06/19 00:10:11;;;;;;;10.50;9.60;;;17.60;99.90;;;;;;5204872;28;20093;-69
2023/06/19 00:12:42;;;;;;;9.90;9.00;;;17.70;99.90;;;;;;5204732;28;20473;-70
2023/06/19 00:15:14;;;;;;;10.40;9.60;;;17.80;99.90;;;;;;5205143;28;20037;-70
2023/06/19 00:17:45;;;;;;;10.55;9.48;;;17.70;99.90;;;;;;5204682;28;20029;-70
2023/06/19 00:20:15;;;;;;;11.18;10.18;;;17.70;99.90;;;;;;5204773;28;20480;-70
2023/06/19 00:22:51;;;;;;;11.75;10.55;;;17.60;99.90;;;;;;5204684;28;20032;-70
2023/06/19 00:25:22;;;;;;;12.30;9.95;;;17.60;99.90;;;;;;5205261;28;20017;-70
2023/06/19 00:27:53;;;;;;;9.80;8.90;;;17.70;99.90;;;;;;5205127;28;20034;-70
2023/06/19 00:30:23;;;;;;;10.13;9.32;;;17.60;99.90;;;;;;5204922;28;20026;-70
2023/06/19 00:32:55;;;;;;;10.35;8.48;;;17.70;99.90;;;;;;5204334;28;20029;-70
2023/06/19 00:35:27;;;;;;;8.35;7.65;;;17.60;99.90;;;;;;5204448;28;20033;-69
2023/06/19 00:38:00;;;;;;;8.57;7.63;;;17.60;99.90;;;;;;5204309;28;20074;-70
2023/06/19 00:40:33;;;;;;;9.38;8.57;;;17.50;99.90;;;;;;5204292;28;20030;-70
2023/06/19 00:43:06;;;;;;;9.25;8.35;;;17.40;99.90;;;;;;5204281;28;20082;-69
2023/06/19 00:45:37;;;;;;;9.07;8.20;;;17.50;99.90;;;;;;5204194;28;20036;-69
2023/06/19 00:48:08;;;;;;;9.30;8.52;;;17.50;99.90;;;;;;5202943;28;20497;-69
2023/06/19 00:50:39;;;;;;;10.35;9.32;;;17.50;99.90;;;;;;5204136;28;20065;-70
2023/06/19 00:53:10;;;;;;;9.52;8.63;;;17.40;99.90;;;;;;5203865;28;20570;-70
2023/06/19 00:55:43;;;;;;;11.57;10.35;;;17.40;99.90;;;;;;5204025;28;20144;-70
2023/06/19 00:58:15;;;;;;;11.90;10.38;;;17.30;99.90;;;;;;5204032;28;20460;-69
2023/06/19 01:00:45;;;;;;;10.82;9.93;;;17.30;99.90;;;;;;5203857;28;20030;-70
2023/06/19 01:03:16;;;;;;;10.88;9.95;;;17.20;99.90;;;;;;5202574;28;20048;-70
2023/06/19 01:05:48;;;;;;;9.85;8.82;;;17.20;99.90;;;;;;5203624;28;20128;-70
2023/06/19 01:08:51;;;;;;;8.77;8.00;;;17.20;99.90;;;;;;5204002;28;20021;-70
2023/06/19 01:11:24;;;;;;;9.90;9.00;;;17.20;99.90;;;;;;5204007;28;20025;-70
2023/06/19 01:14:14;;;;;;;9.68;8.63;;;17.20;99.90;;;;;;5203553;28;20124;-70
2023/06/19 01:16:47;;;;;;;9.57;8.68;;;17.20;99.90;;;;;;5204108;28;20018;-70
2023/06/19 01:19:21;;;;;;;10.73;9.57;;;17.20;99.90;;;;;;5203609;28;20040;-69
2023/06/19 01:21:52;;;;;;;10.32;8.77;;;17.20;99.90;;;;;;5203480;28;20044;-70
2023/06/19 01:24:23;;;;;;;10.85;9.82;;;17.20;99.90;;;;;;5203397;28;20481;-70
2023/06/19 01:26:54;;;;;;;11.00;10.10;;;17.20;99.90;;;;;;5203466;28;20037;-70
2023/06/19 01:29:25;;;;;;;12.43;11.30;;;17.20;99.90;;;;;;5203653;28;20058;-69
2023/06/19 01:32:13;;;;;;;12.45;11.45;;;17.20;99.90;;;;;;5203422;28;20057;-70
2023/06/19 01:34:44;;;;;;;13.18;12.07;;;17.00;99.90;;;;;;5203237;28;20067;-70
2023/06/19 01:37:16;;;;;;;14.52;13.30;;;17.00;99.90;;;;;;5203267;28;20039;-70
2023/06/19 01:39:48;;;;;;;15.57;14.48;;;17.20;99.90;;;;;;5203276;28;20033;-69
2023/06/19 01:42:19;;;;;;;16.15;15.10;;;17.00;99.90;;;;;;5203242;28;20101;-70
2023/06/19 01:44:51;;;;;;;16.45;15.20;;;17.00;99.90;;;;;;5203184;28;20037;-70
2023/06/19 01:47:22;;;;;;;15.65;14.43;;;17.10;99.90;;;;;;5203098;28;20033;-71
2023/06/19 01:49:52;;;;;;;16.08;14.55;;;17.20;99.90;;;;;;5203098;28;20021;-70
2023/06/19 01:52:26;;;;;;;14.10;13.20;;;17.10;99.90;;;;;;5203057;28;20078;-70
2023/06/19 01:54:57;;;;;;;14.82;13.45;;;17.20;99.90;;;;;;5203042;28;20041;-70
2023/06/19 01:57:28;;;;;;;14.15;13.15;;;17.10;99.90;;;;;;5203000;28;20096;-69
2023/06/19 01:59:59;;;;;;;13.55;12.45;;;17.20;99.90;;;;;;5203031;28;20484;-69
2023/06/19 02:02:29;;;;;;;12.15;11.15;;;17.00;99.90;;;;;;5202892;28;20048;-70
2023/06/19 02:05:00;;;;;;;13.80;12.75;;;17.00;99.90;;;;;;5202706;28;20453;-70
2023/06/19 02:07:31;;;;;;;14.75;13.75;;;17.00;99.90;;;;;;5202914;28;20159;-70
2023/06/19 02:10:02;;;;;;;15.07;14.02;;;17.10;99.90;;;;;;5202873;28;20072;-70
2023/06/19 02:12:33;;;;;;;15.38;14.27;;;17.00;99.90;;;;;;5202754;28;20026;-70
2023/06/19 02:15:04;;;;;;;13.35;12.45;;;17.00;99.90;;;;;;5202799;28;20037;-70
2023/06/19 02:17:35;;;;;;;16.50;15.45;;;16.90;99.90;;;;;;5202900;28;20361;-70
2023/06/19 02:20:08;;;;;;;16.65;15.50;;;17.00;99.90;;;;;;5202643;28;20036;-70
2023/06/19 02:22:39;;;;;;;11.63;10.52;;;17.10;99.90;;;;;;5202325;28;20485;-70
2023/06/19 02:25:10;;;;;;;13.35;12.25;;;17.00;99.90;;;;;;5202389;28;20104;-70
2023/06/19 02:27:41;;;;;;;14.23;12.93;;;17.00;99.90;;;;;;5202631;28;20125;-70
2023/06/19 02:30:12;;;;;;;14.00;12.68;;;16.90;99.90;;;;;;5202503;28;20037;-69
2023/06/19 02:32:43;;;;;;;10.60;9.70;;;17.00;99.90;;;;;;5202410;28;20026;-70
2023/06/19 02:35:15;;;;;;;12.02;11.02;;;17.00;99.90;;;;;;5202215;28;20518;-70
2023/06/19 02:37:47;;;;;;;11.32;10.45;;;16.90;99.90;;;;;;5202470;28;20025;-70
2023/06/19 02:40:17;;;;;;;10.50;9.57;;;17.00;99.90;;;;;;5202587;28;20048;-70
2023/06/19 02:42:48;;;;;;;9.63;8.73;;;17.00;99.90;;;;;;5202692;28;20025;-70
2023/06/19 02:45:19;;;;;;;9.77;8.82;;;16.90;99.90;;;;;;5202572;28;20063;-70
2023/06/19 02:47:51;;;;;;;10.00;9.18;;;17.00;99.90;;;;;;5202588;28;20496;-70
2023/06/19 02:50:22;;;;;;;10.38;9.48;;;17.00;99.90;;;;;;5202368;28;20029;-70
2023/06/19 02:52:53;;;;;;;10.60;9.80;;;17.00;99.90;;;;;;5609260;22;20060;-71
2023/06/19 02:55:24;;;;;;;9.80;8.82;;;17.10;99.90;;;;;;5225739;28;20017;-72
2023/06/19 02:57:55;;;;;;;10.88;9.90;;;17.00;99.90;;;;;;5225834;28;20495;-72
2023/06/19 03:00:28;;;;;;;10.50;9.73;;;17.00;99.90;;;;;;5225765;28;20107;-72
2023/06/19 03:02:59;;;;;;;11.40;10.38;;;16.90;99.90;;;;;;5225675;28;20437;-71
2023/06/19 03:05:30;;;;;;;12.05;11.05;;;17.00;99.90;;;;;;5225772;28;20025;-72
2023/06/19 03:08:01;;;;;;;11.25;10.35;;;16.90;99.90;;;;;;5225691;28;20384;-72
2023/06/19 03:10:32;;;;;;;11.00;8.75;;;17.00;99.90;;;;;;5225523;28;20025;-71
2023/06/19 03:13:02;;;;;;;9.50;8.80;;;17.10;99.90;;;;;;5225421;28;20118;-71
2023/06/19 03:15:33;;;;;;;10.88;9.88;;;17.20;99.90;;;;;;5225523;28;20052;-71
2023/06/19 03:18:06;;;;;;;10.48;9.57;;;17.10;99.90;;;;;;5225452;28;20548;-72
2023/06/19 03:20:37;;;;;;;9.65;8.80;;;17.00;99.90;;;;;;5225631;28;20423;-72
2023/06/19 03:23:08;;;;;;;12.18;9.10;;;17.10;99.90;;;;;;5225250;28;20026;-72
2023/06/19 03:25:42;;;;;;;10.02;9.13;;;17.10;99.90;;;;;;5225502;28;20029;-71
2023/06/19 03:28:13;;;;;;;9.32;8.63;;;17.10;99.90;;;;;;5225403;28;20373;-71
2023/06/19 03:30:44;;;;;;;9.52;8.73;;;17.10;99.90;;;;;;5225427;28;20033;-71
2023/06/19 03:33:15;;;;;;;9.02;8.32;;;17.30;99.90;;;;;;5224026;28;20072;-71
2023/06/19 03:35:46;;;;;;;10.15;9.30;;;17.40;99.90;;;;;;5226861;28;20025;-71
2023/06/19 03:38:17;;;;;;;9.57;8.77;;;17.50;99.90;;;;;;5229473;28;20028;-71
2023/06/19 03:40:47;;;;;;;8.38;7.68;;;17.40;99.90;;;;;;5229212;28;20029;-72
2023/06/19 03:43:18;;;;;;;8.35;7.50;;;17.40;99.90;;;;;;5229205;28;20013;-72
2023/06/19 03:45:49;;;;;;;9.25;8.45;;;17.50;99.90;;;;;;5229223;28;20036;-72
2023/06/19 03:48:20;;;;;;;10.45;9.60;;;17.70;99.90;;;;;;5229549;28;20021;-71
2023/06/19 03:50:51;;;;;;;10.52;9.82;;;17.70;99.90;;;;;;5229626;28;20025;-72
2023/06/19 03:53:22;;;;;;;11.23;10.32;;;17.80;99.90;;;;;;5718906;22;20028;-71
2023/06/19 03:55:53;;;;;;;10.70;9.88;;;17.90;99.90;;;;;;5270570;28;20047;-70
2023/06/19 03:58:24;;;;;;;10.90;10.00;;;17.90;99.90;;;;;;5270543;28;20028;-71
2023/06/19 04:00:54;;;;;;;10.00;9.05;;;17.80;99.90;;;;;;5270511;28;20024;-70
2023/06/19 04:03:25;;;;;;;10.57;9.75;;;17.90;99.90;;;;;;5270454;28;20348;-70
2023/06/19 04:05:56;;;;;;;10.27;9.48;;;17.80;99.90;;;;;;5270590;28;20119;-71
2023/06/19 04:08:27;;;;;;;9.45;8.63;;;17.90;99.90;;;;;;5270654;28;20127;-71
2023/06/19 04:10:58;;;;;;;9.23;8.43;;;18.10;99.90;;;;;;5270471;28;20039;-70
2023/06/19 04:13:29;;;;;;;7.55;6.80;;;18.20;99.90;;;;;;5270289;28;20479;-71
2023/06/19 04:16:00;;;;;;;8.05;7.45;;;18.30;99.90;;;;;;5270197;28;20107;-71
2023/06/19 04:18:30;;;;;;;7.60;6.90;;;18.40;99.90;;;;;;5270200;28;20016;-71
2023/06/19 04:21:01;;;;;;;7.40;6.80;;;18.50;99.90;;;;;;5270165;28;20066;-71
2023/06/19 04:23:32;;;;;;;7.18;6.57;;;18.70;99.90;;;;;;5269938;28;20031;-71
2023/06/19 04:26:03;;;;;;;6.30;5.78;;;18.70;99.90;;;;;;5269961;28;20087;-71
2023/06/19 04:28:34;;;;;;;7.03;6.50;;;18.70;99.90;;;;;;5269969;28;20036;-73
2023/06/19 04:31:05;;;;;;;8.50;7.82;;;18.90;99.90;;;;;;5269936;28;20497;-73
2023/06/19 04:33:36;;;;;;;8.45;7.45;;;18.90;99.90;;;;;;5269837;28;20119;-70
2023/06/19 04:36:09;;;;;;;8.20;7.50;;;19.10;99.90;;;;;;5269868;28;20032;-70
2023/06/19 04:38:40;;;;;;;9.10;8.05;;;19.20;99.90;;;;;;5252183;28;20426;-70
2023/06/19 04:41:11;;;;;;;7.72;6.95;;;19.30;99.90;;;;;;5269758;28;20032;-71
2023/06/19 04:43:42;;;;;;;7.97;7.22;;;19.30;99.90;;;;;;5269767;28;20122;-71
2023/06/19 04:46:13;;;;;;;7.47;6.88;;;19.40;99.90;;;;;;5269381;28;20035;-71
2023/06/19 04:48:43;;;;;;;8.25;7.60;;;19.60;99.90;;;;;;5269780;28;20047;-71
2023/06/19 04:51:14;;;;;;;8.20;7.43;;;19.70;99.90;;;;;;5269561;28;20099;-71
2023/06/19 04:53:45;;;;;;;8.48;7.78;;;19.70;99.90;;;;;;5268998;28;20063;-71
2023/06/19 04:56:16;;;;;;;9.35;8.63;;;19.80;99.90;;;;;;5269364;28;20375;-71
2023/06/19 04:58:48;;;;;;;10.23;9.15;;;20.00;99.90;;;;;;5269782;28;20039;-71
2023/06/19 05:01:25;;;;;;;9.55;8.52;;;20.20;99.90;;;;;;5269681;28;20374;-71
2023/06/19 05:03:56;;;;;;;10.05;9.25;;;20.30;99.90;;;;;;5269287;28;20031;-70
2023/06/19 05:06:27;;;;;;;10.32;9.52;;;20.60;99.90;;;;;;5269241;28;20464;-71
2023/06/19 05:08:58;;;;;;;12.40;11.52;;;20.50;99.90;;;;;;5269215;28;20070;-71
2023/06/19 05:11:29;;;;;;;12.60;11.75;;;20.60;99.90;;;;;;5269126;28;20024;-71
2023/06/19 05:14:00;;;;;;;11.27;10.18;;;20.60;99.90;;;;;;5269021;28;20546;-71
2023/06/19 05:16:30;;;;;;;9.63;8.82;;;20.50;99.90;;;;;;5269260;28;20012;-70
2023/06/19 05:19:01;;;;;;;9.88;8.55;;;20.60;99.90;;;;;;5269304;28;20024;-70
2023/06/19 05:21:32;;;;;;;9.07;8.38;;;20.70;99.90;;;;;;5268976;28;20117;-71
2023/06/19 05:24:03;;;;;;;9.25;8.55;;;20.80;99.90;;;;;;5268777;28;20032;-70
2023/06/19 05:26:34;;;;;;;8.68;7.40;;;21.00;99.90;;;;;;5268953;28;20024;-71
2023/06/19 05:29:08;;;;;;;10.77;10.00;;;21.20;99.90;;;;;;5268733;28;20039;-71
2023/06/19 05:31:39;;;;;;;17.55;16.17;;;21.40;99.90;;;;;;5268795;28;20030;-71
2023/06/19 05:34:10;;;;;;;12.88;11.77;;;21.70;99.90;;;;;;5268398;28;20052;-71
2023/06/19 05:36:40;;;;;;;10.70;9.65;;;21.90;99.90;;;;;;5268625;28;20083;-71
2023/06/19 05:39:11;;;;;;;11.20;8.15;;;22.10;99.90;;;;;;5268706;28;20112;-71
2023/06/19 05:41:45;;;;;;;9.55;7.72;;;22.20;99.90;;;;;;5268628;28;20020;-71
2023/06/19 05:44:16;;;;;;;11.15;7.22;;;22.40;99.90;;;;;;5268367;28;20067;-71
2023/06/19 05:46:47;;;;;;;8.43;7.60;;;22.60;99.90;;;;;;5268487;28;20028;-71
2023/06/19 05:49:18;;;;;;;8.68;7.88;;;22.70;99.90;;;;;;5268356;28;20085;-71
2023/06/19 05:51:49;;;;;;;9.05;8.25;;;22.90;99.90;;;;;;5268471;28;20024;-71
2023/06/19 05:54:19;;;;;;;9.30;8.45;;;23.10;99.90;;;;;;5267880;28;20052;-71
2023/06/19 05:56:50;;;;;;;9.68;8.85;;;23.10;99.90;;;;;;5268230;28;20375;-70
2023/06/19 05:59:21;;;;;;;10.45;9.65;;;23.10;99.90;;;;;;5267543;28;20049;-71
2023/06/19 06:01:53;;;;;;;11.18;10.13;;;23.00;99.90;;;;;;5268192;28;20424;-71
2023/06/19 06:04:23;;;;;;;12.30;11.07;;;23.00;99.90;;;;;;5268562;28;20532;-70
2023/06/19 06:06:54;;;;;;;11.93;10.82;;;22.90;99.90;;;;;;5268022;28;20024;-71
2023/06/19 06:09:26;;;;;;;12.60;11.40;;;22.80;99.90;;;;;;5268058;28;20031;-71
2023/06/19 06:11:57;;;;;;;13.82;10.50;;;23.00;99.90;;;;;;5267953;28;20398;-71
2023/06/19 06:14:28;;;;;;;11.90;10.80;;;23.00;99.90;;;;;;5267743;28;20048;-71
2023/06/19 06:16:59;;;;;;;10.10;9.30;;;23.00;99.90;;;;;;5267748;28;20426;-70
2023/06/19 06:19:30;;;;;;;8.40;7.68;;;23.10;99.90;;;;;;5267894;28;20028;-71
2023/06/19 06:22:01;;;;;;;9.15;8.32;;;23.30;99.90;;;;;;5267773;28;20447;-71
2023/06/19 06:24:31;;;;;;;8.75;7.82;;;23.50;99.90;;;;;;5267839;28;20031;-71
2023/06/19 06:27:02;;;;;;;9.90;8.25;;;23.50;99.90;;;;;;5267641;28;20028;-71
2023/06/19 06:29:34;;;;;;;14.35;9.80;;;23.40;99.90;;;;;;5267663;28;20038;-71
2023/06/19 06:32:06;;;;;;;12.18;11.02;;;23.30;99.90;;;;;;5267663;28;20031;-71
2023/06/19 06:34:37;;;;;;;10.45;9.55;;;23.50;99.90;;;;;;5267775;28;20036;-71
2023/06/19 06:37:07;;;;;;;11.02;9.88;;;23.80;99.90;;;;;;5267746;28;20089;-71
2023/06/19 06:39:38;;;;;;;10.93;9.50;;;24.10;99.90;;;;;;5267532;28;20067;-71
2023/06/19 06:42:09;;;;;;;10.30;9.23;;;24.10;99.90;;;;;;5267509;28;20059;-71
2023/06/19 06:44:40;;;;;;;10.80;8.07;;;24.10;99.90;;;;;;5267612;28;20102;-71
2023/06/19 06:47:11;;;;;;;13.07;7.15;;;24.20;99.90;;;;;;5267408;28;20027;-71
2023/06/19 06:49:42;;;;;;;7.88;7.10;;;24.50;99.90;;;;;;5267468;28;20022;-71
2023/06/19 06:52:13;;;;;;;11.32;6.93;;;24.30;99.90;;;;;;5267442;28;20390;-71
2023/06/19 06:54:44;;;;;;;11.88;6.85;;;24.10;99.90;;;;;;5266950;28;20044;-71
2023/06/19 06:57:15;;;;;;;10.27;7.68;;;24.20;99.90;;;;;;5267308;28;20043;-71
2023/06/19 06:59:45;;;;;;;13.23;7.25;;;24.30;99.90;;;;;;5267295;28;20036;-71
2023/06/19 07:02:16;;;;;;;8.80;7.47;;;24.20;99.90;;;;;;5267318;28;20077;-71
2023/06/19 07:04:47;;;;;;;10.98;8.57;;;24.20;99.90;;;;;;5267345;28;20024;-71
2023/06/19 07:07:18;;;;;;;13.73;8.57;;;24.20;99.90;;;;;;5267234;28;20560;-71
2023/06/19 07:09:49;;;;;;;13.75;8.40;;;24.50;99.90;;;;;;5269052;28;20030;-71
2023/06/19 07:12:20;;;;;;;11.20;8.75;;;24.30;99.90;;;;;;5271825;28;20032;-71
2023/06/19 07:14:54;;;;;;;11.40;8.30;;;24.10;99.90;;;;;;5271452;28;20043;-71
2023/06/19 07:17:25;;;;;;;9.52;8.63;;;24.40;99.90;;;;;;5271578;28;20077;-71
2023/06/19 07:19:56;;;;;;;12.05;9.07;;;24.70;99.90;;;;;;5271400;28;20036;-71
2023/06/19 07:22:26;;;;;;;11.13;10.00;;;24.80;99.90;;;;;;5271451;28;20024;-71
2023/06/19 07:24:57;;;;;;;10.27;9.15;;;24.70;99.90;;;;;;5271100;28;20542;-71
2023/06/19 07:27:28;;;;;;;10.38;9.38;;;24.50;99.90;;;;;;5271304;28;20034;-71
2023/06/19 07:29:59;;;;;;;11.65;9.70;;;24.30;99.90;;;;;;5271257;28;20368;-71
2023/06/19 07:32:30;;;;;;;11.20;8.15;;;24.10;99.90;;;;;;5271214;28;20065;-71
2023/06/19 07:35:01;;;;;;;9.25;8.25;;;24.00;99.90;;;;;;5270938;28;20043;-71
2023/06/19 07:37:32;;;;;;;10.80;9.27;;;24.10;99.90;;;;;;5271103;28;20473;-71
2023/06/19 07:40:03;;;;;;;11.60;9.43;;;24.00;99.90;;;;;;5270899;28;20061;-71
2023/06/19 07:42:34;;;;;;;11.57;8.90;;;24.00;99.90;;;;;;5270938;28;20028;-71
2023/06/19 07:45:06;;;;;;;13.80;9.05;;;24.00;99.90;;;;;;5270893;28;20024;-71
2023/06/19 07:47:36;;;;;;;12.65;9.32;;;24.10;99.90;;;;;;5270934;28;20097;-71
2023/06/19 07:50:08;;;;;;;11.75;8.82;;;24.10;99.90;;;;;;5271090;28;20099;-71
2023/06/19 07:52:39;;;;;;;13.90;9.63;;;24.00;99.90;;;;;;5270871;28;20111;-71
2023/06/19 07:55:09;;;;;;;9.73;8.85;;;24.20;99.90;;;;;;5270391;28;20123;-71
2023/06/19 07:57:40;;;;;;;11.43;9.07;;;24.30;99.90;;;;;;5270768;28;20036;-71
2023/06/19 08:00:12;;;;;;;13.35;8.77;;;24.20;99.90;;;;;;5252432;28;20032;-71
2023/06/19 08:02:43;;;;;;;10.75;8.60;;;24.20;99.90;;;;;;5270616;28;20376;-71
2023/06/19 08:05:14;;;;;;;10.55;8.30;;;24.40;99.90;;;;;;5270509;28;20009;-71
2023/06/19 08:07:45;;;;;;;14.63;9.38;;;24.80;99.90;;;;;;5270754;28;20024;-71
2023/06/19 08:10:16;;;;;;;14.05;10.00;;;24.70;99.90;;;;;;5270477;28;20074;-71
2023/06/19 08:12:47;;;;;;;13.18;9.25;;;24.60;99.90;;;;;;5270314;28;20059;-71
2023/06/19 08:15:17;;;;;;;13.13;9.55;;;24.60;99.90;;;;;;5270463;28;20035;-71
2023/06/19 08:17:48;;;;;;;12.02;10.25;;;24.60;99.90;;;;;;5270669;28;20045;-71
2023/06/19 08:20:20;;;;;;;15.68;9.63;;;24.70;99.90;;;;;;5270633;28;20024;-72
2023/06/19 08:22:51;;;;;;;14.43;10.70;;;24.60;99.90;;;;;;5269402;28;20020;-71
2023/06/19 08:25:22;;;;;;;16.15;10.57;;;24.30;99.90;;;;;;5251908;28;20375;-71
2023/06/19 08:27:52;;;;;;;14.75;11.55;;;24.40;99.90;;;;;;5270063;28;20090;-71
2023/06/19 08:30:23;;;;;;;12.07;10.38;;;24.10;99.90;;;;;;5270134;28;20032;-71
2023/06/19 08:32:54;;;;;;;16.80;12.10;;;24.40;99.90;;;;;;5269847;28;20061;-70
2023/06/19 08:35:25;;;;;;;15.10;11.90;;;24.30;99.90;;;;;;5269865;28;20043;-71
2023/06/19 08:37:56;;;;;;;16.30;11.23;;;24.20;99.90;;;;;;5269847;28;20016;-71
2023/06/19 08:40:27;;;;;;;17.65;11.68;;;24.30;99.90;;;;;;5269697;28;20032;-71
2023/06/19 08:42:57;;;;;;;15.20;11.38;;;24.30;99.90;;;;;;5269695;28;20035;-71
2023/06/19 08:45:29;;;;;;;16.80;12.35;;;24.30;99.90;;;;;;5269681;28;20020;-71
2023/06/19 08:48:03;;;;;;;17.92;11.68;;;24.20;99.90;;;;;;5269466;28;20067;-71
2023/06/19 08:50:34;;;;;;;16.10;13.57;;;24.40;99.90;;;;;;5269481;28;20043;-71
2023/06/19 08:53:05;;;;;;;20.08;13.50;;;24.40;99.90;;;;;;5269062;28;20016;-72
2023/06/19 08:55:36;;;;;;;15.57;12.45;;;24.60;99.90;;;;;;5269535;28;20054;-71
2023/06/19 08:58:06;;;;;;;18.10;12.88;;;24.60;99.90;;;;;;5269570;28;20031;-71
2023/06/19 09:00:37;;;;;;;14.70;12.48;;;24.50;99.90;;;;;;5269420;28;20032;-71
2023/06/19 09:03:09;;;;;;;19.52;13.73;;;24.60;99.90;;;;;;5269460;28;20023;-71
2023/06/19 09:05:49;;;;;;;21.13;14.10;;;24.50;99.90;;;;;;5269274;28;20075;-71
2023/06/19 09:08:20;;;;;;;;;;;24.40;99.90;;;;;;5269686;28;20111;-71
2023/06/19 09:10:59;;;;;;;17.13;13.60;;;24.10;99.90;;;;;;5269359;28;19999;-71
2023/06/19 09:13:31;;;;;;;19.02;13.65;;;24.20;99.90;;;;;;5269211;28;20032;-71
2023/06/19 09:16:07;;;;;;;17.73;12.88;;;24.20;99.90;;;;;;5269343;28;20082;-71
2023/06/19 09:18:48;;;;;;;18.35;14.60;;;24.20;99.90;;;;;;5269248;28;20005;-71
2023/06/19 09:21:21;;;;;;;18.88;14.18;;;24.10;99.90;;;;;;5269148;28;20052;-71
2023/06/19 09:23:52;;;;;;;20.30;14.32;;;24.00;99.90;;;;;;5268900;28;20020;-71
2023/06/19 09:26:23;;;;;;;18.60;13.82;;;24.00;99.90;;;;;;5269412;28;20831;-71
2023/06/19 09:28:54;;;;;;;17.55;14.05;;;24.10;99.90;;;;;;5269263;28;20103;-71
2023/06/19 09:31:34;;;;;;;17.08;13.68;;;24.10;99.90;;;;;;5268895;28;20107;-71
2023/06/19 09:34:05;;;;;;;17.42;14.20;;;24.10;99.90;;;;;;5267825;28;20039;-71
2023/06/19 09:36:37;;;;;;;19.25;14.95;;;24.10;99.90;;;;;;5268782;28;20032;-71
2023/06/19 09:39:09;;;;;;;19.42;14.57;;;23.70;99.90;;;;;;5268674;28;20043;-70
2023/06/19 09:41:42;;;;;;;16.13;13.88;;;23.80;99.90;;;;;;5268685;28;20042;-70
2023/06/19 09:44:14;;;;;;;16.25;13.68;;;23.90;99.90;;;;;;5268490;28;20119;-70
2023/06/19 09:46:48;;;;;;;16.30;14.05;;;23.70;99.90;;;;;;5268630;28;20036;-70
2023/06/19 09:49:22;;;;;;;16.70;14.20;;;23.50;99.90;;;;;;5268469;28;20042;-70
2023/06/19 09:51:52;;;;;;;23.38;14.88;;;23.50;99.90;;;;;;5268397;28;20031;-72
2023/06/19 09:54:25;;;;;;;16.80;13.85;;;23.60;99.90;;;;;;5267850;28;20066;-72
2023/06/19 09:56:59;;;;;;;15.77;14.18;;;23.70;99.90;;;;;;5268297;28;20070;-70
2023/06/19 09:59:30;;;;;;;16.15;14.10;;;23.80;99.90;;;;;;5268207;28;20044;-70
2023/06/19 10:02:05;;;;;;;15.68;13.82;;;23.80;99.90;;;;;;5268043;28;20115;-72
2023/06/19 10:04:49;;;;;;;18.73;13.55;;;23.70;99.90;;;;;;5268125;28;20031;-70
2023/06/19 10:07:22;;;;;;;15.00;13.27;;;23.70;99.90;;;;;;5267931;28;20028;-70
2023/06/19 10:10:20;;;;;;;18.85;13.30;;;24.00;99.90;;;;;;5268222;28;20073;-70
2023/06/19 10:12:52;;;;;;;16.08;13.38;;;23.90;99.90;;;;;;5254370;28;20043;-70
2023/06/19 10:15:29;;;;;;;16.95;13.30;;;23.70;99.90;;;;;;5267918;28;20445;-71
2023/06/19 10:18:05;;;;;;;18.40;12.43;;;24.00;99.90;;;;;;5268002;28;20112;-70
2023/06/19 10:20:38;;;;;;;18.90;14.40;;;24.00;99.90;;;;;;5268282;28;20024;-70
2023/06/19 10:23:18;;;;;;;25.80;19.63;;;24.20;99.90;;;;;;5268092;28;20051;-72
2023/06/19 10:25:56;;;;;;;18.60;15.50;;;24.20;99.90;;;;;;5267981;28;20028;-70
2023/06/19 10:28:28;;;;;;;18.98;13.55;;;24.70;99.90;;;;;;5267842;28;20122;-70
2023/06/19 10:31:06;;;;;;;15.20;12.18;;;24.70;99.90;;;;;;5267845;28;20367;-70
2023/06/19 10:33:40;;;;;;;12.85;11.23;;;24.90;99.90;;;;;;5267757;28;20032;-72
2023/06/19 10:36:19;;;;;;;13.48;12.10;;;25.30;99.90;;;;;;5268039;28;20020;-73
2023/06/19 10:38:50;;;;;;;18.42;12.00;;;25.30;99.90;;;;;;5267636;28;20012;-72
2023/06/19 10:41:25;;;;;;;13.75;12.50;;;25.30;99.90;;;;;;5267671;28;20032;-70
2023/06/19 10:44:14;;;;;;;14.90;11.98;;;25.30;99.90;;;;;;5267278;28;20009;-70
2023/06/19 10:46:45;;;;;;;13.93;12.52;;;25.40;99.90;;;;;;5250404;28;20368;-73
2023/06/19 10:49:16;;;;;;;14.80;13.18;;;26.00;99.90;;;;;;5267335;28;20080;-72
2023/06/19 10:51:48;;;;;;;16.60;13.40;;;26.00;99.90;;;;;;5267384;28;20047;-72
2023/06/19 10:54:19;;;;;;;14.35;12.73;;;26.20;99.90;;;;;;5267386;28;20534;-73
2023/06/19 10:56:51;;;;;;;15.85;11.48;;;26.20;99.90;;;;;;5267349;28;20044;-73
2023/06/19 10:59:21;;;;;;;16.88;12.05;;;26.30;99.90;;;;;;5267363;28;20032;-73
2023/06/19 11:01:52;;;;;;;20.40;12.18;;;26.40;99.90;;;;;;5249079;28;20154;-73
2023/06/19 11:04:25;;;;;;;17.88;14.45;;;26.30;99.90;;;;;;5267320;28;20421;-73
2023/06/19 11:07:04;;;;;;;16.83;15.02;;;26.30;99.90;;;;;;5267129;28;20416;-73
2023/06/19 11:09:35;;;;;;;16.67;14.85;;;26.50;99.90;;;;;;5267375;28;20036;-73
2023/06/19 11:12:07;;;;;;;19.08;17.20;;;26.40;99.90;;;;;;5267203;28;20458;-73
2023/06/19 11:14:42;;;;;;;19.52;17.95;;;26.40;99.90;;;;;;5266998;28;20046;-73
2023/06/19 11:17:13;;;;;;;17.73;16.13;;;26.40;99.90;;;;;;5267066;28;20072;-73
2023/06/19 11:19:44;;;;;;;18.20;16.38;;;26.50;99.90;;;;;;5267104;28;20707;-72
2023/06/19 11:22:15;;;;;;;15.23;13.82;;;26.70;99.90;;;;;;5267010;28;20063;-73
2023/06/19 11:24:46;;;;;;;16.10;14.32;;;26.60;99.90;;;;;;5266909;28;20459;-73
2023/06/19 11:27:28;;;;;;;14.10;12.57;;;26.70;99.90;;;;;;5267027;28;20067;-73
2023/06/19 11:29:59;;;;;;;18.52;10.73;;;26.80;99.90;;;;;;5267257;28;20039;-72
2023/06/19 11:32:32;;;;;;;15.95;10.35;;;27.00;99.90;;;;;;5267101;28;20032;-73
2023/06/19 11:35:09;;;;;;;11.68;9.57;;;26.60;99.90;;;;;;5267075;28;20544;-71
2023/06/19 11:37:41;;;;;;;10.02;8.85;;;26.30;99.90;;;;;;5267222;28;20028;-73
2023/06/19 11:40:14;;;;;;;9.85;8.48;;;26.80;99.90;;;;;;5267168;28;20028;-73
2023/06/19 11:42:51;;;;;;;15.57;9.82;;;26.60;99.90;;;;;;5267133;28;20028;-73
2023/06/19 11:45:22;;;;;;;10.93;8.63;;;26.70;99.90;;;;;;5267367;28;20368;-73
2023/06/19 11:47:52;;;;;;;11.18;9.18;;;26.70;99.90;;;;;;5267068;28;20028;-72
2023/06/19 11:50:29;;;;;;;16.38;8.88;;;26.50;99.90;;;;;;5266853;28;20032;-73
2023/06/19 11:53:01;;;;;;;13.27;9.05;;;26.60;99.90;;;;;;5266564;28;20463;-73
2023/06/19 11:55:32;;;;;;;11.13;9.27;;;26.70;99.90;;;;;;5266625;28;20059;-73
2023/06/19 11:58:03;;;;;;;14.27;9.57;;;26.70;99.90;;;;;;5270273;28;20111;-73
2023/06/19 12:00:36;;;;;;;9.32;8.32;;;26.70;99.90;;;;;;5270708;28;20032;-73
2023/06/19 12:03:08;;;;;;;11.52;8.40;;;26.90;99.90;;;;;;5270529;28;20056;-73
2023/06/19 12:05:39;;;;;;;10.00;8.32;;;27.10;99.90;;;;;;5270617;28;20020;-73
2023/06/19 12:08:09;;;;;;;15.32;8.85;;;27.00;99.90;;;;;;5270546;28;20376;-73
2023/06/19 12:10:40;;;;;;;15.93;10.05;;;27.00;99.90;;;;;;5270440;28;20020;-73
2023/06/19 12:13:11;;;;;;;13.13;10.75;;;27.10;99.90;;;;;;5270310;28;20564;-73
2023/06/19 12:15:42;;;;;;;10.93;9.95;;;27.10;99.90;;;;;;5270714;28;20036;-72
2023/06/19 12:18:13;;;;;;;14.07;12.60;;;27.10;99.90;;;;;;5270741;28;20083;-73
2023/06/19 12:20:44;;;;;;;14.25;12.73;;;27.30;99.90;;;;;;5270506;28;20074;-73
2023/06/19 12:23:15;;;;;;;15.20;13.80;;;27.20;99.90;;;;;;5270101;28;20032;-73
2023/06/19 12:25:46;;;;;;;16.92;15.32;;;27.20;99.90;;;;;;5270144;28;20036;-73
2023/06/19 12:28:18;;;;;;;16.55;15.05;;;27.10;99.90;;;;;;5270074;28;20368;-74
2023/06/19 12:30:51;;;;;;;18.38;15.73;;;27.00;99.90;;;;;;5270180;28;20467;-73
2023/06/19 12:33:22;;;;;;;16.08;14.63;;;27.20;99.90;;;;;;5269901;28;20035;-73
2023/06/19 12:35:53;;;;;;;17.08;15.65;;;27.00;99.90;;;;;;5269876;28;20036;-73
2023/06/19 12:38:24;;;;;;;16.02;14.52;;;27.20;99.90;;;;;;5269894;28;20466;-73
2023/06/19 12:40:54;;;;;;;13.85;12.45;;;27.30;99.90;;;;;;5269859;28;20052;-73
2023/06/19 12:43:26;;;;;;;13.98;12.57;;;26.90;99.90;;;;;;5269970;28;20032;-73
2023/06/19 12:45:57;;;;;;;12.70;11.48;;;27.30;99.90;;;;;;5269899;28;20026;-73
2023/06/19 12:48:28;;;;;;;13.20;11.52;;;27.10;99.90;;;;;;5269861;28;20028;-73
2023/06/19 12:50:59;;;;;;;11.75;10.65;;;27.10;99.90;;;;;;5269960;28;20486;-73
2023/06/19 12:53:30;;;;;;;13.73;11.27;;;27.00;99.90;;;;;;5269573;28;20036;-72
2023/06/19 12:56:01;;;;;;;12.73;10.30;;;27.10;99.90;;;;;;5269823;28;20115;-73
2023/06/19 12:58:32;;;;;;;11.32;10.07;;;27.10;99.90;;;;;;5269713;28;20838;-72